sensor_id;sensor_type;location;lat;lon;timestamp;temperature;humidity
50907;DHT22;36882;27.680;85.304;2022-09-09T00:02:24;23.50;99.90
50907;DHT22;36882;27.680;85.304;2022-09-09T00:05:14;23.40;99.90
50907;DHT22;36882;27.680;85.304;2022-09-09T00:07:50;23.50;99.90
50907;DHT22;36882;27.680;85.304;2022-09-09T00:10:36;23.40;99.90
50907;DHT22;36882;27.680;85.304;2022-09-09T00:13:31;23.40;99.90
50907;DHT22;36882;27.680;85.304;2022-09-09T00:16:12;23.30;99.90
50907;DHT22;36882;27.680;85.304;2022-09-09T00:22:04;23.30;99.90
50907;DHT22;36882;27.680;85.304;2022-09-09T00:24:44;23.30;99.90
50907;DHT22;36882;27.680;85.304;2022-09-09T00:27:27;23.30;99.90
50907;DHT22;36882;27.680;85.304;2022-09-09T00:30:23;23.20;99.90
50907;DHT22;36882;27.680;85.304;2022-09-09T00:33:00;23.30;99.90
50907;DHT22;36882;27.680;85.304;2022-09-09T00:35:36;23.30;99.90
50907;DHT22;36882;27.680;85.304;2022-09-09T00:44:32;23.30;99.90
50907;DHT22;36882;27.680;85.304;2022-09-09T00:47:39;23.40;99.90
50907;DHT22;36882;27.680;85.304;2022-09-09T00:50:27;23.40;99.90
50907;DHT22;36882;27.680;85.304;2022-09-09T00:53:24;23.40;99.90
50907;DHT22;36882;27.680;85.304;2022-09-09T00:56:13;23.50;99.90
50907;DHT22;36882;27.680;85.304;2022-09-09T00:58:59;23.60;99.90
50907;DHT22;36882;27.680;85.304;2022-09-09T01:01:32;23.60;99.90
50907;DHT22;36882;27.680;85.304;2022-09-09T01:04:09;23.60;99.90
50907;DHT22;36882;27.680;85.304;2022-09-09T01:06:42;23.70;99.90
50907;DHT22;36882;27.680;85.304;2022-09-09T01:09:26;23.70;99.90
50907;DHT22;36882;27.680;85.304;2022-09-09T01:12:15;23.70;99.90
50907;DHT22;36882;27.680;85.304;2022-09-09T01:14:52;23.80;99.90
50907;DHT22;36882;27.680;85.304;2022-09-09T01:17:31;23.80;99.90
50907;DHT22;36882;27.680;85.304;2022-09-09T01:20:10;23.90;99.90
50907;DHT22;36882;27.680;85.304;2022-09-09T01:28:47;23.90;99.90
50907;DHT22;36882;27.680;85.304;2022-09-09T01:31:38;23.90;99.90
50907;DHT22;36882;27.680;85.304;2022-09-09T01:34:14;23.90;99.90
50907;DHT22;36882;27.680;85.304;2022-09-09T01:37:12;24.10;99.90
50907;DHT22;36882;27.680;85.304;2022-09-09T01:39:44;24.10;99.90
50907;DHT22;36882;27.680;85.304;2022-09-09T01:42:16;24.20;99.90
50907;DHT22;36882;27.680;85.304;2022-09-09T01:44:48;24.20;99.90
50907;DHT22;36882;27.680;85.304;2022-09-09T01:47:18;24.30;99.90
50907;DHT22;36882;27.680;85.304;2022-09-09T01:49:49;24.50;99.90
50907;DHT22;36882;27.680;85.304;2022-09-09T01:52:19;24.40;99.90
50907;DHT22;36882;27.680;85.304;2022-09-09T01:54:50;24.50;99.90
50907;DHT22;36882;27.680;85.304;2022-09-09T01:57:25;24.60;99.90
50907;DHT22;36882;27.680;85.304;2022-09-09T02:00:10;24.70;99.90
50907;DHT22;36882;27.680;85.304;2022-09-09T02:08:45;24.90;99.60
50907;DHT22;36882;27.680;85.304;2022-09-09T02:11:19;25.00;99.80
50907;DHT22;36882;27.680;85.304;2022-09-09T02:13:54;25.10;99.60
50907;DHT22;36882;27.680;85.304;2022-09-09T02:16:33;25.10;99.20
50907;DHT22;36882;27.680;85.304;2022-09-09T02:19:23;25.30;98.50
50907;DHT22;36882;27.680;85.304;2022-09-09T02:21:57;25.30;98.80
50907;DHT22;36882;27.680;85.304;2022-09-09T02:24:34;25.30;99.40
50907;DHT22;36882;27.680;85.304;2022-09-09T02:27:07;25.50;99.30
50907;DHT22;36882;27.680;85.304;2022-09-09T02:29:42;25.50;99.10
50907;DHT22;36882;27.680;85.304;2022-09-09T02:32:19;25.60;98.80
50907;DHT22;36882;27.680;85.304;2022-09-09T02:34:58;25.60;98.70
50907;DHT22;36882;27.680;85.304;2022-09-09T02:37:32;25.60;98.50
50907;DHT22;36882;27.680;85.304;2022-09-09T02:40:06;25.70;98.60
50907;DHT22;36882;27.680;85.304;2022-09-09T02:42:43;25.80;98.40
50907;DHT22;36882;27.680;85.304;2022-09-09T02:45:16;25.90;98.10
50907;DHT22;36882;27.680;85.304;2022-09-09T02:48:17;25.80;97.90
50907;DHT22;36882;27.680;85.304;2022-09-09T02:54:02;25.90;98.40
50907;DHT22;36882;27.680;85.304;2022-09-09T02:56:41;25.90;98.10
50907;DHT22;36882;27.680;85.304;2022-09-09T02:59:13;26.00;98.20
50907;DHT22;36882;27.680;85.304;2022-09-09T03:01:44;26.00;97.40
50907;DHT22;36882;27.680;85.304;2022-09-09T03:04:14;26.00;98.00
50907;DHT22;36882;27.680;85.304;2022-09-09T03:06:45;26.00;98.40
50907;DHT22;36882;27.680;85.304;2022-09-09T03:09:15;26.00;98.50
50907;DHT22;36882;27.680;85.304;2022-09-09T03:11:45;26.00;97.90
50907;DHT22;36882;27.680;85.304;2022-09-09T03:14:16;26.00;97.80
50907;DHT22;36882;27.680;85.304;2022-09-09T03:16:47;26.00;97.50
50907;DHT22;36882;27.680;85.304;2022-09-09T03:19:18;25.90;97.90
50907;DHT22;36882;27.680;85.304;2022-09-09T03:21:52;26.00;97.60
50907;DHT22;36882;27.680;85.304;2022-09-09T03:24:23;26.00;97.50
50907;DHT22;36882;27.680;85.304;2022-09-09T03:26:53;26.10;97.40
50907;DHT22;36882;27.680;85.304;2022-09-09T03:29:25;26.20;97.50
50907;DHT22;36882;27.680;85.304;2022-09-09T03:31:55;26.30;97.90
50907;DHT22;36882;27.680;85.304;2022-09-09T03:34:25;26.50;97.80
50907;DHT22;36882;27.680;85.304;2022-09-09T03:36:56;26.60;97.30
50907;DHT22;36882;27.680;85.304;2022-09-09T03:39:27;26.80;96.70
50907;DHT22;36882;27.680;85.304;2022-09-09T03:41:58;26.90;96.50
50907;DHT22;36882;27.680;85.304;2022-09-09T03:44:29;27.00;95.90
50907;DHT22;36882;27.680;85.304;2022-09-09T03:47:00;27.00;95.90
50907;DHT22;36882;27.680;85.304;2022-09-09T03:49:30;27.10;96.40
50907;DHT22;36882;27.680;85.304;2022-09-09T03:52:01;27.30;96.10
50907;DHT22;36882;27.680;85.304;2022-09-09T03:54:31;27.40;95.70
50907;DHT22;36882;27.680;85.304;2022-09-09T03:57:02;27.60;95.00
50907;DHT22;36882;27.680;85.304;2022-09-09T03:59:33;27.70;94.70
50907;DHT22;36882;27.680;85.304;2022-09-09T04:02:04;27.80;95.50
50907;DHT22;36882;27.680;85.304;2022-09-09T04:04:35;27.90;95.30
50907;DHT22;36882;27.680;85.304;2022-09-09T04:07:06;28.00;94.30
50907;DHT22;36882;27.680;85.304;2022-09-09T04:09:36;28.00;95.30
50907;DHT22;36882;27.680;85.304;2022-09-09T04:12:06;27.90;95.10
50907;DHT22;36882;27.680;85.304;2022-09-09T04:14:37;27.90;95.90
50907;DHT22;36882;27.680;85.304;2022-09-09T04:17:07;27.90;96.00
50907;DHT22;36882;27.680;85.304;2022-09-09T04:19:37;27.90;95.70
50907;DHT22;36882;27.680;85.304;2022-09-09T04:22:08;28.00;94.90
50907;DHT22;36882;27.680;85.304;2022-09-09T04:24:39;28.10;95.20
50907;DHT22;36882;27.680;85.304;2022-09-09T04:27:15;28.20;94.30
50907;DHT22;36882;27.680;85.304;2022-09-09T04:29:45;28.20;95.20
50907;DHT22;36882;27.680;85.304;2022-09-09T04:32:16;28.20;93.60
50907;DHT22;36882;27.680;85.304;2022-09-09T04:34:47;28.00;94.60
50907;DHT22;36882;27.680;85.304;2022-09-09T04:37:17;28.00;94.40
50907;DHT22;36882;27.680;85.304;2022-09-09T04:39:48;27.80;94.00
50907;DHT22;36882;27.680;85.304;2022-09-09T04:42:18;27.70;94.40
50907;DHT22;36882;27.680;85.304;2022-09-09T04:44:49;26.40;94.60
50907;DHT22;36882;27.680;85.304;2022-09-09T04:47:19;27.60;94.90
50907;DHT22;36882;27.680;85.304;2022-09-09T04:50:09;27.60;95.20
50907;DHT22;36882;27.680;85.304;2022-09-09T04:52:39;27.60;94.60
50907;DHT22;36882;27.680;85.304;2022-09-09T04:55:11;27.50;95.50
50907;DHT22;36882;27.680;85.304;2022-09-09T04:57:44;27.50;94.80
50907;DHT22;36882;27.680;85.304;2022-09-09T05:00:16;27.40;95.50
50907;DHT22;36882;27.680;85.304;2022-09-09T05:02:50;27.30;96.20
50907;DHT22;36882;27.680;85.304;2022-09-09T05:05:21;27.20;95.80
50907;DHT22;36882;27.680;85.304;2022-09-09T05:07:52;27.10;95.90
50907;DHT22;36882;27.680;85.304;2022-09-09T05:10:23;27.00;96.10
50907;DHT22;36882;27.680;85.304;2022-09-09T05:12:53;26.90;96.70
50907;DHT22;36882;27.680;85.304;2022-09-09T05:15:24;26.80;96.80
50907;DHT22;36882;27.680;85.304;2022-09-09T05:18:02;26.50;97.60
50907;DHT22;36882;27.680;85.304;2022-09-09T05:20:33;26.10;98.40
50907;DHT22;36882;27.680;85.304;2022-09-09T05:23:03;25.60;99.20
50907;DHT22;36882;27.680;85.304;2022-09-09T05:25:34;25.50;99.70
50907;DHT22;36882;27.680;85.304;2022-09-09T05:28:04;25.30;99.90
50907;DHT22;36882;27.680;85.304;2022-09-09T05:30:37;25.20;99.80
50907;DHT22;36882;27.680;85.304;2022-09-09T05:33:07;24.90;99.90
50907;DHT22;36882;27.680;85.304;2022-09-09T05:35:39;24.50;99.90
50907;DHT22;36882;27.680;85.304;2022-09-09T05:38:09;24.40;99.90
50907;DHT22;36882;27.680;85.304;2022-09-09T05:40:47;24.40;99.90
50907;DHT22;36882;27.680;85.304;2022-09-09T05:43:19;24.20;99.90
50907;DHT22;36882;27.680;85.304;2022-09-09T05:46:03;24.00;99.90
50907;DHT22;36882;27.680;85.304;2022-09-09T05:48:36;24.00;99.90
50907;DHT22;36882;27.680;85.304;2022-09-09T05:51:09;23.90;99.90
50907;DHT22;36882;27.680;85.304;2022-09-09T05:53:43;23.80;99.90
50907;DHT22;36882;27.680;85.304;2022-09-09T05:56:16;23.80;99.90
50907;DHT22;36882;27.680;85.304;2022-09-09T05:58:49;23.80;99.90
50907;DHT22;36882;27.680;85.304;2022-09-09T06:01:24;23.80;99.90
50907;DHT22;36882;27.680;85.304;2022-09-09T06:03:57;23.80;99.90
50907;DHT22;36882;27.680;85.304;2022-09-09T06:06:33;23.90;99.90
50907;DHT22;36882;27.680;85.304;2022-09-09T06:09:07;23.90;99.90
50907;DHT22;36882;27.680;85.304;2022-09-09T06:11:40;24.00;99.90
50907;DHT22;36882;27.680;85.304;2022-09-09T06:14:10;23.90;99.90
50907;DHT22;36882;27.680;85.304;2022-09-09T06:16:41;23.90;99.90
50907;DHT22;36882;27.680;85.304;2022-09-09T06:19:13;23.90;99.90
50907;DHT22;36882;27.680;85.304;2022-09-09T06:21:44;23.90;99.90
50907;DHT22;36882;27.680;85.304;2022-09-09T06:24:14;24.00;99.90
50907;DHT22;36882;27.680;85.304;2022-09-09T06:26:47;24.00;99.90
50907;DHT22;36882;27.680;85.304;2022-09-09T06:29:17;23.90;99.90
50907;DHT22;36882;27.680;85.304;2022-09-09T06:31:47;23.80;99.90
50907;DHT22;36882;27.680;85.304;2022-09-09T06:34:18;23.80;99.90
50907;DHT22;36882;27.680;85.304;2022-09-09T06:36:48;23.90;99.90
50907;DHT22;36882;27.680;85.304;2022-09-09T06:39:19;23.90;99.90
50907;DHT22;36882;27.680;85.304;2022-09-09T06:41:50;23.90;99.90
50907;DHT22;36882;27.680;85.304;2022-09-09T06:44:22;23.90;99.90
50907;DHT22;36882;27.680;85.304;2022-09-09T06:46:53;23.90;99.90
50907;DHT22;36882;27.680;85.304;2022-09-09T06:49:23;23.90;99.90
50907;DHT22;36882;27.680;85.304;2022-09-09T06:51:54;24.00;99.90
50907;DHT22;36882;27.680;85.304;2022-09-09T06:54:25;24.10;99.90
50907;DHT22;36882;27.680;85.304;2022-09-09T06:56:55;24.10;99.90
50907;DHT22;36882;27.680;85.304;2022-09-09T06:59:31;24.10;99.90
50907;DHT22;36882;27.680;85.304;2022-09-09T07:02:01;24.10;99.90
50907;DHT22;36882;27.680;85.304;2022-09-09T07:04:32;24.20;99.90
50907;DHT22;36882;27.680;85.304;2022-09-09T07:07:03;24.30;99.90
50907;DHT22;36882;27.680;85.304;2022-09-09T07:09:34;24.40;99.90
50907;DHT22;36882;27.680;85.304;2022-09-09T07:12:04;24.60;99.90
50907;DHT22;36882;27.680;85.304;2022-09-09T07:14:36;24.70;99.70
50907;DHT22;36882;27.680;85.304;2022-09-09T07:17:07;24.80;99.90
50907;DHT22;36882;27.680;85.304;2022-09-09T07:19:37;24.70;99.60
50907;DHT22;36882;27.680;85.304;2022-09-09T07:22:08;24.90;99.90
50907;DHT22;36882;27.680;85.304;2022-09-09T07:24:40;25.00;99.90
50907;DHT22;36882;27.680;85.304;2022-09-09T07:27:10;25.20;99.90
50907;DHT22;36882;27.680;85.304;2022-09-09T07:29:41;25.30;99.90
50907;DHT22;36882;27.680;85.304;2022-09-09T07:32:11;25.40;99.90
50907;DHT22;36882;27.680;85.304;2022-09-09T07:34:48;25.50;99.90
50907;DHT22;36882;27.680;85.304;2022-09-09T07:37:20;25.50;99.90
50907;DHT22;36882;27.680;85.304;2022-09-09T07:39:51;25.60;99.90
50907;DHT22;36882;27.680;85.304;2022-09-09T07:42:21;25.70;99.50
50907;DHT22;36882;27.680;85.304;2022-09-09T07:44:52;25.70;99.30
50907;DHT22;36882;27.680;85.304;2022-09-09T07:47:24;25.80;99.00
50907;DHT22;36882;27.680;85.304;2022-09-09T07:49:55;25.90;98.70
50907;DHT22;36882;27.680;85.304;2022-09-09T07:52:25;25.80;99.10
50907;DHT22;36882;27.680;85.304;2022-09-09T07:54:57;25.80;99.40
50907;DHT22;36882;27.680;85.304;2022-09-09T07:57:30;25.90;98.80
50907;DHT22;36882;27.680;85.304;2022-09-09T08:00:00;26.00;99.50
50907;DHT22;36882;27.680;85.304;2022-09-09T08:02:32;26.10;99.60
50907;DHT22;36882;27.680;85.304;2022-09-09T08:05:03;26.20;98.80
50907;DHT22;36882;27.680;85.304;2022-09-09T08:07:35;26.20;98.60
50907;DHT22;36882;27.680;85.304;2022-09-09T08:10:05;26.30;99.10
50907;DHT22;36882;27.680;85.304;2022-09-09T08:12:36;26.40;98.70
50907;DHT22;36882;27.680;85.304;2022-09-09T08:15:22;26.40;99.00
50907;DHT22;36882;27.680;85.304;2022-09-09T08:17:56;26.60;98.50
50907;DHT22;36882;27.680;85.304;2022-09-09T08:20:30;26.60;98.40
50907;DHT22;36882;27.680;85.304;2022-09-09T08:23:00;26.60;97.90
50907;DHT22;36882;27.680;85.304;2022-09-09T08:25:31;26.70;97.90
50907;DHT22;36882;27.680;85.304;2022-09-09T08:28:01;26.80;98.20
50907;DHT22;36882;27.680;85.304;2022-09-09T08:30:33;26.90;97.20
50907;DHT22;36882;27.680;85.304;2022-09-09T08:33:03;26.90;97.20
50907;DHT22;36882;27.680;85.304;2022-09-09T08:35:34;27.00;97.10
50907;DHT22;36882;27.680;85.304;2022-09-09T08:38:04;27.10;97.60
50907;DHT22;36882;27.680;85.304;2022-09-09T08:40:42;27.20;96.20
50907;DHT22;36882;27.680;85.304;2022-09-09T08:43:21;27.10;95.30
50907;DHT22;36882;27.680;85.304;2022-09-09T08:46:03;27.10;95.40
50907;DHT22;36882;27.680;85.304;2022-09-09T08:48:56;27.10;95.00
50907;DHT22;36882;27.680;85.304;2022-09-09T08:51:29;27.20;95.00
50907;DHT22;36882;27.680;85.304;2022-09-09T08:54:02;27.20;95.40
50907;DHT22;36882;27.680;85.304;2022-09-09T08:56:33;27.20;94.40
50907;DHT22;36882;27.680;85.304;2022-09-09T08:59:04;27.10;94.90
50907;DHT22;36882;27.680;85.304;2022-09-09T09:02:05;27.10;95.20
50907;DHT22;36882;27.680;85.304;2022-09-09T09:04:54;27.30;95.70
50907;DHT22;36882;27.680;85.304;2022-09-09T09:07:50;27.40;95.20
50907;DHT22;36882;27.680;85.304;2022-09-09T09:10:50;27.50;95.30
50907;DHT22;36882;27.680;85.304;2022-09-09T09:13:42;27.60;95.40
50907;DHT22;36882;27.680;85.304;2022-09-09T09:16:29;27.60;94.40
50907;DHT22;36882;27.680;85.304;2022-09-09T09:19:02;27.70;95.40
50907;DHT22;36882;27.680;85.304;2022-09-09T09:21:45;27.80;94.90
50907;DHT22;36882;27.680;85.304;2022-09-09T09:24:22;27.70;94.80
50907;DHT22;36882;27.680;85.304;2022-09-09T09:26:55;27.40;94.50
50907;DHT22;36882;27.680;85.304;2022-09-09T09:29:26;27.40;94.70
50907;DHT22;36882;27.680;85.304;2022-09-09T09:32:00;27.40;94.40
50907;DHT22;36882;27.680;85.304;2022-09-09T09:34:32;27.30;94.80
50907;DHT22;36882;27.680;85.304;2022-09-09T09:37:02;27.20;95.30
50907;DHT22;36882;27.680;85.304;2022-09-09T09:39:41;27.30;94.90
50907;DHT22;36882;27.680;85.304;2022-09-09T09:42:32;27.30;95.60
50907;DHT22;36882;27.680;85.304;2022-09-09T09:45:26;27.40;95.30
50907;DHT22;36882;27.680;85.304;2022-09-09T09:48:02;27.50;94.80
50907;DHT22;36882;27.680;85.304;2022-09-09T09:50:34;27.70;94.60
50907;DHT22;36882;27.680;85.304;2022-09-09T09:53:16;27.70;94.80
50907;DHT22;36882;27.680;85.304;2022-09-09T09:55:55;27.80;94.00
50907;DHT22;36882;27.680;85.304;2022-09-09T09:58:27;27.70;94.50
50907;DHT22;36882;27.680;85.304;2022-09-09T10:01:18;27.70;94.30
50907;DHT22;36882;27.680;85.304;2022-09-09T10:03:52;27.70;94.00
50907;DHT22;36882;27.680;85.304;2022-09-09T10:06:35;27.60;94.10
50907;DHT22;36882;27.680;85.304;2022-09-09T10:09:26;27.60;94.70
50907;DHT22;36882;27.680;85.304;2022-09-09T10:12:31;27.70;94.80
50907;DHT22;36882;27.680;85.304;2022-09-09T10:15:31;27.80;93.10
50907;DHT22;36882;27.680;85.304;2022-09-09T10:22:51;28.00;90.90
50907;DHT22;36882;27.680;85.304;2022-09-09T10:34:55;28.00;94.30
50907;DHT22;36882;27.680;85.304;2022-09-09T10:43:23;28.30;94.20
50907;DHT22;36882;27.680;85.304;2022-09-09T10:46:12;28.30;94.70
50907;DHT22;36882;27.680;85.304;2022-09-09T10:52:13;28.30;94.40
50907;DHT22;36882;27.680;85.304;2022-09-09T10:55:11;28.20;93.90
50907;DHT22;36882;27.680;85.304;2022-09-09T10:57:47;28.10;94.50
50907;DHT22;36882;27.680;85.304;2022-09-09T11:00:24;28.00;94.20
50907;DHT22;36882;27.680;85.304;2022-09-09T11:02:59;27.90;94.60
50907;DHT22;36882;27.680;85.304;2022-09-09T11:05:53;27.90;94.60
50907;DHT22;36882;27.680;85.304;2022-09-09T11:08:29;27.90;94.30
50907;DHT22;36882;27.680;85.304;2022-09-09T11:11:10;27.80;94.40
50907;DHT22;36882;27.680;85.304;2022-09-09T11:19:37;27.60;94.40
50907;DHT22;36882;27.680;85.304;2022-09-09T11:22:33;27.50;94.50
50907;DHT22;36882;27.680;85.304;2022-09-09T11:25:16;27.50;94.30
50907;DHT22;36882;27.680;85.304;2022-09-09T11:28:05;27.40;94.80
50907;DHT22;36882;27.680;85.304;2022-09-09T11:39:57;27.10;94.80
50907;DHT22;36882;27.680;85.304;2022-09-09T11:42:30;27.00;95.50
50907;DHT22;36882;27.680;85.304;2022-09-09T11:45:24;26.80;95.00
50907;DHT22;36882;27.680;85.304;2022-09-09T11:48:00;26.70;95.40
50907;DHT22;36882;27.680;85.304;2022-09-09T11:50:37;26.70;95.30
50907;DHT22;36882;27.680;85.304;2022-09-09T11:53:22;26.70;95.10
50907;DHT22;36882;27.680;85.304;2022-09-09T11:56:06;26.60;95.20
50907;DHT22;36882;27.680;85.304;2022-09-09T11:58:41;26.60;95.30
50907;DHT22;36882;27.680;85.304;2022-09-09T12:01:44;26.60;95.00
50907;DHT22;36882;27.680;85.304;2022-09-09T12:04:13;26.50;95.20
50907;DHT22;36882;27.680;85.304;2022-09-09T12:07:00;26.60;95.00
50907;DHT22;36882;27.680;85.304;2022-09-09T12:09:56;26.60;94.80
50907;DHT22;36882;27.680;85.304;2022-09-09T12:12:35;26.60;95.40
50907;DHT22;36882;27.680;85.304;2022-09-09T12:15:20;26.50;96.10
50907;DHT22;36882;27.680;85.304;2022-09-09T12:17:53;26.30;96.70
50907;DHT22;36882;27.680;85.304;2022-09-09T12:20:37;26.10;97.00
50907;DHT22;36882;27.680;85.304;2022-09-09T12:23:23;26.00;97.20
50907;DHT22;36882;27.680;85.304;2022-09-09T12:26:14;26.00;97.60
50907;DHT22;36882;27.680;85.304;2022-09-09T12:29:06;25.90;97.90
50907;DHT22;36882;27.680;85.304;2022-09-09T12:37:47;25.80;97.70
50907;DHT22;36882;27.680;85.304;2022-09-09T12:40:23;25.80;97.80
50907;DHT22;36882;27.680;85.304;2022-09-09T12:42:53;25.70;97.80
50907;DHT22;36882;27.680;85.304;2022-09-09T12:45:28;25.70;98.00
50907;DHT22;36882;27.680;85.304;2022-09-09T12:48:08;25.60;98.30
50907;DHT22;36882;27.680;85.304;2022-09-09T12:50:48;25.60;98.60
50907;DHT22;36882;27.680;85.304;2022-09-09T12:53:26;25.60;98.40
50907;DHT22;36882;27.680;85.304;2022-09-09T12:56:06;25.60;98.00
50907;DHT22;36882;27.680;85.304;2022-09-09T12:58:38;25.50;97.80
50907;DHT22;36882;27.680;85.304;2022-09-09T13:04:15;25.50;97.70
50907;DHT22;36882;27.680;85.304;2022-09-09T13:06:49;25.50;97.60
50907;DHT22;36882;27.680;85.304;2022-09-09T13:09:21;25.50;97.60
50907;DHT22;36882;27.680;85.304;2022-09-09T13:11:55;25.50;97.70
50907;DHT22;36882;27.680;85.304;2022-09-09T13:14:34;25.50;97.50
50907;DHT22;36882;27.680;85.304;2022-09-09T13:17:15;25.40;97.50
50907;DHT22;36882;27.680;85.304;2022-09-09T13:19:48;25.40;97.20
50907;DHT22;36882;27.680;85.304;2022-09-09T13:22:34;25.40;97.30
50907;DHT22;36882;27.680;85.304;2022-09-09T13:25:19;25.40;97.30
50907;DHT22;36882;27.680;85.304;2022-09-09T13:27:57;25.30;97.40
50907;DHT22;36882;27.680;85.304;2022-09-09T13:30:36;25.30;97.40
50907;DHT22;36882;27.680;85.304;2022-09-09T13:33:29;25.30;97.40
50907;DHT22;36882;27.680;85.304;2022-09-09T13:36:03;25.30;97.70
50907;DHT22;36882;27.680;85.304;2022-09-09T13:38:40;25.20;97.60
50907;DHT22;36882;27.680;85.304;2022-09-09T13:41:11;25.10;98.00
50907;DHT22;36882;27.680;85.304;2022-09-09T13:43:52;25.10;98.10
50907;DHT22;36882;27.680;85.304;2022-09-09T13:49:22;25.10;98.20
50907;DHT22;36882;27.680;85.304;2022-09-09T13:52:05;25.00;98.20
50907;DHT22;36882;27.680;85.304;2022-09-09T13:54:37;25.00;98.00
50907;DHT22;36882;27.680;85.304;2022-09-09T13:57:27;25.00;98.20
50907;DHT22;36882;27.680;85.304;2022-09-09T13:59:57;25.10;98.50
50907;DHT22;36882;27.680;85.304;2022-09-09T14:02:33;25.10;98.60
50907;DHT22;36882;27.680;85.304;2022-09-09T14:05:04;25.00;98.60
50907;DHT22;36882;27.680;85.304;2022-09-09T14:07:36;25.00;98.80
50907;DHT22;36882;27.680;85.304;2022-09-09T14:10:08;25.00;98.90
50907;DHT22;36882;27.680;85.304;2022-09-09T14:12:38;25.00;99.10
50907;DHT22;36882;27.680;85.304;2022-09-09T14:15:11;24.90;99.00
50907;DHT22;36882;27.680;85.304;2022-09-09T14:17:42;24.90;98.80
50907;DHT22;36882;27.680;85.304;2022-09-09T14:20:12;25.00;98.80
50907;DHT22;36882;27.680;85.304;2022-09-09T14:22:44;24.90;99.00
50907;DHT22;36882;27.680;85.304;2022-09-09T14:25:15;24.90;99.00
50907;DHT22;36882;27.680;85.304;2022-09-09T14:27:45;24.90;99.10
50907;DHT22;36882;27.680;85.304;2022-09-09T14:30:16;24.90;99.10
50907;DHT22;36882;27.680;85.304;2022-09-09T14:32:46;24.90;99.10
50907;DHT22;36882;27.680;85.304;2022-09-09T14:35:16;24.90;99.10
50907;DHT22;36882;27.680;85.304;2022-09-09T14:37:47;24.90;99.20
50907;DHT22;36882;27.680;85.304;2022-09-09T14:40:18;24.90;99.30
50907;DHT22;36882;27.680;85.304;2022-09-09T14:42:49;24.90;99.10
50907;DHT22;36882;27.680;85.304;2022-09-09T14:45:19;24.90;99.30
50907;DHT22;36882;27.680;85.304;2022-09-09T14:47:51;24.90;99.30
50907;DHT22;36882;27.680;85.304;2022-09-09T14:50:22;24.90;99.20
50907;DHT22;36882;27.680;85.304;2022-09-09T14:52:53;24.90;98.80
50907;DHT22;36882;27.680;85.304;2022-09-09T14:55:23;24.90;98.80
50907;DHT22;36882;27.680;85.304;2022-09-09T14:57:53;25.00;99.20
50907;DHT22;36882;27.680;85.304;2022-09-09T15:00:24;24.90;99.30
50907;DHT22;36882;27.680;85.304;2022-09-09T15:02:55;24.90;99.30
50907;DHT22;36882;27.680;85.304;2022-09-09T15:05:26;24.90;99.30
50907;DHT22;36882;27.680;85.304;2022-09-09T15:07:57;24.90;99.30
50907;DHT22;36882;27.680;85.304;2022-09-09T15:10:28;24.80;99.20
50907;DHT22;36882;27.680;85.304;2022-09-09T15:13:00;24.80;99.30
50907;DHT22;36882;27.680;85.304;2022-09-09T15:15:31;24.80;98.90
50907;DHT22;36882;27.680;85.304;2022-09-09T15:18:04;24.70;98.70
50907;DHT22;36882;27.680;85.304;2022-09-09T15:20:34;24.70;98.50
50907;DHT22;36882;27.680;85.304;2022-09-09T15:23:07;24.60;98.70
50907;DHT22;36882;27.680;85.304;2022-09-09T15:25:38;24.60;98.60
50907;DHT22;36882;27.680;85.304;2022-09-09T15:28:09;24.40;99.20
50907;DHT22;36882;27.680;85.304;2022-09-09T15:30:39;24.30;99.30
50907;DHT22;36882;27.680;85.304;2022-09-09T15:33:10;24.20;99.40
50907;DHT22;36882;27.680;85.304;2022-09-09T15:35:40;24.20;99.60
50907;DHT22;36882;27.680;85.304;2022-09-09T15:38:11;24.20;99.90
50907;DHT22;36882;27.680;85.304;2022-09-09T15:40:43;24.00;99.90
50907;DHT22;36882;27.680;85.304;2022-09-09T15:43:13;23.90;99.90
50907;DHT22;36882;27.680;85.304;2022-09-09T15:45:46;23.90;99.90
50907;DHT22;36882;27.680;85.304;2022-09-09T15:48:19;23.90;99.90
50907;DHT22;36882;27.680;85.304;2022-09-09T15:51:02;23.90;99.90
50907;DHT22;36882;27.680;85.304;2022-09-09T15:53:55;23.90;99.90
50907;DHT22;36882;27.680;85.304;2022-09-09T15:56:27;23.90;99.90
50907;DHT22;36882;27.680;85.304;2022-09-09T15:58:58;24.00;99.90
50907;DHT22;36882;27.680;85.304;2022-09-09T16:01:30;24.00;99.90
50907;DHT22;36882;27.680;85.304;2022-09-09T16:04:01;24.00;99.90
50907;DHT22;36882;27.680;85.304;2022-09-09T16:06:31;24.00;99.90
50907;DHT22;36882;27.680;85.304;2022-09-09T16:09:04;24.00;99.90
50907;DHT22;36882;27.680;85.304;2022-09-09T16:11:37;23.90;99.90
50907;DHT22;36882;27.680;85.304;2022-09-09T16:14:08;23.90;99.90
50907;DHT22;36882;27.680;85.304;2022-09-09T16:16:39;23.90;99.90
50907;DHT22;36882;27.680;85.304;2022-09-09T16:19:12;23.80;99.90
50907;DHT22;36882;27.680;85.304;2022-09-09T16:21:45;23.80;99.90
50907;DHT22;36882;27.680;85.304;2022-09-09T16:24:18;23.80;99.80
50907;DHT22;36882;27.680;85.304;2022-09-09T16:26:51;23.90;99.80
50907;DHT22;36882;27.680;85.304;2022-09-09T16:29:22;23.80;99.80
50907;DHT22;36882;27.680;85.304;2022-09-09T16:31:54;23.80;99.70
50907;DHT22;36882;27.680;85.304;2022-09-09T16:34:30;23.80;99.70
50907;DHT22;36882;27.680;85.304;2022-09-09T16:37:03;23.90;99.60
50907;DHT22;36882;27.680;85.304;2022-09-09T16:39:33;23.90;99.50
50907;DHT22;36882;27.680;85.304;2022-09-09T16:42:04;23.90;99.80
50907;DHT22;36882;27.680;85.304;2022-09-09T16:44:34;23.90;99.80
50907;DHT22;36882;27.680;85.304;2022-09-09T16:47:05;23.90;99.70
50907;DHT22;36882;27.680;85.304;2022-09-09T16:49:35;23.90;99.70
50907;DHT22;36882;27.680;85.304;2022-09-09T16:52:06;24.00;99.60
50907;DHT22;36882;27.680;85.304;2022-09-09T16:54:36;24.00;99.30
50907;DHT22;36882;27.680;85.304;2022-09-09T16:57:07;24.00;99.20
50907;DHT22;36882;27.680;85.304;2022-09-09T16:59:37;24.00;99.40
50907;DHT22;36882;27.680;85.304;2022-09-09T17:02:08;24.00;99.60
50907;DHT22;36882;27.680;85.304;2022-09-09T17:04:39;24.00;99.80
50907;DHT22;36882;27.680;85.304;2022-09-09T17:07:10;24.00;99.80
50907;DHT22;36882;27.680;85.304;2022-09-09T17:09:40;24.00;99.80
50907;DHT22;36882;27.680;85.304;2022-09-09T17:12:11;24.00;99.80
50907;DHT22;36882;27.680;85.304;2022-09-09T17:14:42;24.00;99.50
50907;DHT22;36882;27.680;85.304;2022-09-09T17:17:12;24.00;99.50
50907;DHT22;36882;27.680;85.304;2022-09-09T17:19:58;24.00;99.10
50907;DHT22;36882;27.680;85.304;2022-09-09T17:22:29;24.00;99.10